Time;durP1;ratioP1;P1;durP2;ratioP2;P2;SDS_P1;SDS_P2;PMS_P1;PMS_P2;Temp;Humidity;BMP_temperature;BMP_pressure;BME280_temperature;BME280_humidity;BME280_pressure;Samples;Min_cycle;Max_cycle;Signal;HPM_P1;HPM_P2
2022/01/28 00:05:12;;;;;;;47.22;31.88;;;;;;;;;;12567440;28;20033;-75
2022/01/28 00:11:14;;;;;;;63.58;41.80;;;;;;;;;;12583487;28;20044;-75
2022/01/28 00:42:03;;;;;;;68.38;43.75;;;;;;;;;;12585325;28;20036;-75
2022/01/28 00:50:22;;;;;;;61.70;40.83;;;;;;;;;;12587109;28;20501;-75
2022/01/28 00:56:24;;;;;;;60.28;39.80;;;;;;;;;;12586990;28;20033;-75
2022/01/28 01:02:26;;;;;;;52.50;37.30;;;;;;;;;;12568814;28;20032;-75
2022/01/28 01:08:27;;;;;;;44.42;30.27;;;;;;;;;;12585118;28;20045;-75
2022/01/28 01:14:29;;;;;;;67.88;44.15;;;;;;;;;;12568182;28;20037;-75
2022/01/28 01:26:39;;;;;;;62.03;40.35;;;;;;;;;;12584044;28;20041;-74
2022/01/28 01:32:40;;;;;;;70.88;45.90;;;;;;;;;;12583869;28;20036;-74
2022/01/28 01:56:35;;;;;;;51.72;35.30;;;;;;;;;;12669641;28;20043;-75
2022/01/28 02:27:22;;;;;;;61.10;42.95;;;;;;;;;;12587249;28;20494;-75
2022/01/28 02:33:25;;;;;;;53.72;37.28;;;;;;;;;;12586352;28;20039;-75
2022/01/28 02:39:27;;;;;;;45.75;31.92;;;;;;;;;;12586630;28;20036;-74
2022/01/28 02:45:35;;;;;;;50.90;34.20;;;;;;;;;;12568234;28;20041;-75
2022/01/28 03:04:01;;;;;;;51.63;35.00;;;;;;;;;;12587308;28;20492;-74
2022/01/28 03:16:11;;;;;;;55.10;36.67;;;;;;;;;;12586634;28;20040;-75
2022/01/28 03:22:13;;;;;;;51.40;34.42;;;;;;;;;;12568269;28;20410;-76
2022/01/28 03:28:16;;;;;;;48.08;31.88;;;;;;;;;;12568135;28;20496;-75
2022/01/28 03:45:22;;;;;;;60.20;40.65;;;;;;;;;;12721550;27;20486;-75
2022/01/28 03:51:25;;;;;;;51.78;34.40;;;;;;;;;;12703535;28;20034;-75
2022/01/28 04:22:18;;;;;;;63.40;40.90;;;;;;;;;;12585313;28;20039;-75
2022/01/28 04:28:19;;;;;;;57.90;38.60;;;;;;;;;;12585228;28;20044;-75
2022/01/28 04:34:23;;;;;;;59.92;41.65;;;;;;;;;;12584981;28;20440;-75
2022/01/28 04:40:29;;;;;;;56.08;37.38;;;;;;;;;;12568129;28;20028;-75
2022/01/28 04:58:53;;;;;;;48.37;31.57;;;;;;;;;;12583933;28;20103;-75
2022/01/28 05:05:17;;;;;;;45.22;30.55;;;;;;;;;;12585009;28;20041;-74
2022/01/28 05:29:42;;;;;;;46.00;32.78;;;;;;;;;;12687321;28;20038;-75
2022/01/28 05:35:44;;;;;;;52.92;34.47;;;;;;;;;;12669448;28;20050;-75
2022/01/28 05:47:59;;;;;;;59.03;37.83;;;;;;;;;;12587586;28;20485;-75
2022/01/28 06:00:17;;;;;;;52.72;37.47;;;;;;;;;;12688016;27;20461;-74
2022/01/28 06:06:21;;;;;;;62.30;41.53;;;;;;;;;;12687564;28;20032;-74
2022/01/28 06:12:22;;;;;;;58.00;36.85;;;;;;;;;;12685708;28;20402;-74
2022/01/28 06:18:24;;;;;;;49.88;32.75;;;;;;;;;;12687192;28;20184;-74
2022/01/28 06:24:26;;;;;;;54.35;38.22;;;;;;;;;;12685362;28;20039;-75
2022/01/28 06:30:27;;;;;;;54.13;36.13;;;;;;;;;;12668366;28;20038;-74
2022/01/28 06:36:29;;;;;;;41.97;29.58;;;;;;;;;;12651970;28;20512;-75
2022/01/28 06:42:31;;;;;;;48.53;33.53;;;;;;;;;;12641473;28;20059;-75
2022/01/28 06:48:32;;;;;;;51.47;34.72;;;;;;;;;;12649831;28;20039;-75
2022/01/28 07:04:32;;;;;;;63.42;39.70;;;;;;;;;;12502558;28;20475;-75
2022/01/28 07:13:57;;;;;;;70.75;46.47;;;;;;;;;;12699856;27;20711;-74
2022/01/28 07:19:58;;;;;;;58.92;38.60;;;;;;;;;;12666473;28;20511;-73
2022/01/28 19:37:03;;;;;;;59.78;48.17;;;;;;;;;;12587170;28;20553;-74
2022/01/28 19:43:05;;;;;;;90.43;68.00;;;;;;;;;;12585999;28;20029;-74
2022/01/28 19:49:09;;;;;;;68.88;52.40;;;;;;;;;;12568769;28;20044;-75
2022/01/28 19:55:11;;;;;;;65.90;51.80;;;;;;;;;;12568719;28;20370;-75
2022/01/28 20:01:12;;;;;;;59.43;47.97;;;;;;;;;;12568335;28;20037;-75
2022/01/28 20:07:16;;;;;;;58.33;45.03;;;;;;;;;;12567502;28;20474;-75
2022/01/28 20:13:17;;;;;;;;;;;;;;;;;;12584375;28;20482;-75
2022/01/28 20:19:19;;;;;;;50.40;40.08;;;;;;;;;;12567165;28;19908;-75
2022/01/28 20:25:22;;;;;;;49.40;40.35;;;;;;;;;;12583843;28;20036;-75
2022/01/28 20:31:23;;;;;;;41.47;33.65;;;;;;;;;;12566691;28;20064;-75
2022/01/28 20:37:26;;;;;;;52.45;40.80;;;;;;;;;;12584230;28;20501;-75
2022/01/28 20:43:28;;;;;;;48.67;40.58;;;;;;;;;;12560880;28;20036;-75
2022/01/28 20:49:31;;;;;;;38.35;30.30;;;;;;;;;;12550703;28;20037;-73
2022/01/28 20:55:33;;;;;;;55.67;42.47;;;;;;;;;;12532666;28;20045;-75
2022/01/28 21:01:34;;;;;;;61.47;46.25;;;;;;;;;;12532542;28;20036;-76
2022/01/28 21:07:45;;;;;;;46.95;36.47;;;;;;;;;;12550088;28;20037;-75
2022/01/28 21:13:46;;;;;;;42.22;33.47;;;;;;;;;;12531831;28;20529;-75
2022/01/28 21:19:48;;;;;;;49.63;37.97;;;;;;;;;;12532498;28;20037;-74
2022/01/28 21:25:50;;;;;;;47.30;36.30;;;;;;;;;;12548661;28;20045;-74
2022/01/28 21:31:52;;;;;;;39.90;32.00;;;;;;;;;;12531338;28;20053;-75
2022/01/28 21:37:54;;;;;;;50.50;38.75;;;;;;;;;;12547664;28;20040;-75
2022/01/28 21:43:56;;;;;;;42.95;34.83;;;;;;;;;;12530671;28;20394;-75
2022/01/28 21:49:57;;;;;;;43.72;35.28;;;;;;;;;;12546908;28;20033;-75
2022/01/28 21:55:59;;;;;;;62.65;48.03;;;;;;;;;;12545423;28;20041;-75
2022/01/28 22:02:01;;;;;;;66.45;47.05;;;;;;;;;;12546777;28;20044;-75
2022/01/28 22:08:03;;;;;;;56.28;40.90;;;;;;;;;;12545965;28;20048;-75
2022/01/28 22:14:05;;;;;;;51.88;41.38;;;;;;;;;;12545702;28;20051;-74
2022/01/28 22:20:06;;;;;;;66.93;51.92;;;;;;;;;;12545372;28;20036;-74
2022/01/28 22:26:09;;;;;;;61.05;45.45;;;;;;;;;;12528737;28;20032;-75
2022/01/28 22:32:10;;;;;;;60.30;44.87;;;;;;;;;;12545130;28;20067;-75
2022/01/28 22:38:12;;;;;;;60.42;44.22;;;;;;;;;;12528467;28;20278;-74
2022/01/28 22:44:14;;;;;;;41.75;32.72;;;;;;;;;;12544568;28;20040;-75
2022/01/28 22:50:16;;;;;;;70.93;50.13;;;;;;;;;;12528002;28;20401;-75
2022/01/28 22:56:18;;;;;;;77.05;54.55;;;;;;;;;;12543737;28;20047;-74
2022/01/28 23:02:20;;;;;;;87.22;58.25;;;;;;;;;;12543667;28;20410;-75
2022/01/28 23:08:21;;;;;;;56.65;41.42;;;;;;;;;;12543568;28;20040;-74
2022/01/28 23:14:23;;;;;;;49.70;38.10;;;;;;;;;;12526382;28;20049;-75
2022/01/28 23:20:25;;;;;;;46.03;34.83;;;;;;;;;;12543075;28;20035;-74
2022/01/28 23:26:27;;;;;;;56.30;42.17;;;;;;;;;;12526494;28;20044;-74
2022/01/28 23:32:28;;;;;;;45.58;35.05;;;;;;;;;;12542482;28;20057;-75
2022/01/28 23:38:44;;;;;;;38.38;30.52;;;;;;;;;;12689208;27;20475;-73
2022/01/28 23:44:46;;;;;;;42.80;33.25;;;;;;;;;;12671150;28;20507;-74
2022/01/28 23:50:47;;;;;;;40.22;30.85;;;;;;;;;;12688381;28;20043;-74
2022/01/28 23:56:49;;;;;;;41.83;31.02;;;;;;;;;;12669170;28;20047;-74
